Darstellungsparameter: Aktuell verwendete Einstellungen:
Skalierung der Graphiken ... ?
xyx+y,   Skalierungsfaktor:      Skalierung: Modus: x, Faktor: 1
Darstellungszeitraum ... ?
Vom - - bis: - -   Zeitraum: 27.08.2019 - 28.08.2019
Min/Max/Avg-Anzeige ... ?
Zeige MMA aktuell
Zeige MMA Monat
Zeige MMA alles
Zeige --A aktuell
Zeige --A Monat
Zeige --A alles
Keine MMA-Anzeige
MMA:
Keine MMA-Graphiken
MMA-Basis: 27.08.2019 - 28.08.2019
Quicknavigation für Darstellung... ?
Tage:      1T, 2T, 3T, 5T -1T -2T -3T -5T +1T +2T +3T +5T
Wochen: 1W, 2W, 3W -1W -2W -3W +1W +2W +3W
Monate: 1M, 3M, 6M -1M -3M -6M +1M +3M +6M
Jahre:    1J, 3J, 5J, 10J -1J -3J -5J -10J +1J +3J +5J +10J
Nutze für die Darstellung ... ?
Originaldaten oder Mittelwerte auf ...
Stundenbasis Tagesbasis Wochenbasis
Monatsbasis Jahresbasis      Datenbasis: Original-Daten
Darstellen als:
Statistik (Auto) Statistik J:M      Darstellung:
Zur Graphik,    zurück zur Übersicht aller Sensoren.
 
Tabellarische Datenbersicht: ?
 
Sensor: Nr:Datum:Temp:Feuchte:Taupunkt:
Aussen-T/F 1 27-08-2019 00:00:00 19.9 C 89 % 18.03 C
2 27-08-2019 00:05:00 19.8 C 89 % 17.93 C
3 27-08-2019 00:10:00 19.7 C 89 % 17.84 C
4 27-08-2019 00:15:00 19.6 C 89 % 17.74 C
5 27-08-2019 00:20:00 19.5 C 89 % 17.64 C
6 27-08-2019 00:25:00 19.4 C 90 % 17.72 C
7 27-08-2019 00:30:00 19.3 C 90 % 17.62 C
8 27-08-2019 00:35:00 19.2 C 90 % 17.52 C
9 27-08-2019 00:40:00 19.2 C 90 % 17.52 C
10 27-08-2019 00:45:00 19.1 C 91 % 17.6 C
11 27-08-2019 00:50:00 19.1 C 91 % 17.6 C
12 27-08-2019 00:55:00 19.1 C 92 % 17.77 C
13 27-08-2019 01:00:00 19.2 C 92 % 17.87 C
14 27-08-2019 01:05:00 19.2 C 92 % 17.87 C
15 27-08-2019 01:10:00 19.2 C 92 % 17.87 C
16 27-08-2019 01:15:00 19.1 C 92 % 17.77 C
17 27-08-2019 01:20:00 19.1 C 92 % 17.77 C
18 27-08-2019 01:25:00 19.1 C 92 % 17.77 C
19 27-08-2019 01:30:00 19.1 C 92 % 17.77 C
20 27-08-2019 01:35:00 19 C 92 % 17.67 C
21 27-08-2019 01:40:00 18.9 C 92 % 17.57 C
22 27-08-2019 01:45:00 18.8 C 92 % 17.47 C
23 27-08-2019 01:50:00 18.8 C 92 % 17.47 C
24 27-08-2019 01:55:00 18.7 C 92 % 17.37 C
25 27-08-2019 02:00:00 18.7 C 92 % 17.37 C
Sensor: Nr:Datum:Temp:Feuchte:Taupunkt:
Aussen-T/F 26 27-08-2019 02:05:00 18.6 C 92 % 17.27 C
27 27-08-2019 02:10:00 18.5 C 93 % 17.35 C
28 27-08-2019 02:15:00 18.5 C 93 % 17.35 C
29 27-08-2019 02:20:00 18.5 C 93 % 17.35 C
30 27-08-2019 02:25:00 18.4 C 93 % 17.25 C
31 27-08-2019 02:30:00 18.4 C 93 % 17.25 C
32 27-08-2019 02:35:00 18.3 C 93 % 17.15 C
33 27-08-2019 02:40:00 18.3 C 93 % 17.15 C
34 27-08-2019 02:45:00 18.2 C 93 % 17.05 C
35 27-08-2019 02:50:00 18.2 C 93 % 17.05 C
36 27-08-2019 02:55:00 18.1 C 93 % 16.95 C
37 27-08-2019 03:00:00 18.1 C 94 % 17.12 C
38 27-08-2019 03:05:00 18.1 C 93 % 16.95 C
39 27-08-2019 03:10:00 17.9 C 94 % 16.92 C
40 27-08-2019 03:15:00 17.9 C 94 % 16.92 C
41 27-08-2019 03:20:00 17.8 C 94 % 16.82 C
42 27-08-2019 03:25:00 17.8 C 94 % 16.82 C
43 27-08-2019 03:30:00 17.9 C 94 % 16.92 C
44 27-08-2019 03:35:00 17.9 C 94 % 16.92 C
45 27-08-2019 03:40:00 17.9 C 94 % 16.92 C
46 27-08-2019 03:45:00 17.9 C 94 % 16.92 C
47 27-08-2019 03:50:00 17.9 C 95 % 17.09 C
48 27-08-2019 03:55:00 17.9 C 95 % 17.09 C
49 27-08-2019 04:00:00 17.9 C 95 % 17.09 C
50 27-08-2019 04:05:00 17.8 C 94 % 16.82 C
Sensor: Nr:Datum:Temp:Feuchte:Taupunkt:
Aussen-T/F 51 27-08-2019 04:10:00 17.8 C 94 % 16.82 C
52 27-08-2019 04:15:00 17.7 C 94 % 16.72 C
53 27-08-2019 04:20:00 17.7 C 94 % 16.72 C
54 27-08-2019 04:25:00 17.6 C 94 % 16.62 C
55 27-08-2019 04:30:00 17.5 C 94 % 16.52 C
56 27-08-2019 04:35:00 17.4 C 95 % 16.59 C
57 27-08-2019 04:40:00 17.4 C 94 % 16.42 C
58 27-08-2019 04:45:00 17.4 C 95 % 16.59 C
59 27-08-2019 04:50:00 17.3 C 94 % 16.33 C
60 27-08-2019 04:55:00 17.2 C 94 % 16.23 C
61 27-08-2019 05:00:00 17.2 C 95 % 16.39 C
62 27-08-2019 05:05:00 17.2 C 95 % 16.39 C
63 27-08-2019 05:10:00 17.1 C 95 % 16.29 C
64 27-08-2019 05:15:00 17.1 C 95 % 16.29 C
65 27-08-2019 05:20:00 17.1 C 95 % 16.29 C
66 27-08-2019 05:25:00 17.2 C 95 % 16.39 C
67 27-08-2019 05:30:00 17.3 C 95 % 16.49 C
68 27-08-2019 05:35:00 17.3 C 95 % 16.49 C
69 27-08-2019 05:40:00 17.2 C 95 % 16.39 C
70 27-08-2019 05:45:00 17.1 C 95 % 16.29 C
71 27-08-2019 05:50:00 17.1 C 95 % 16.29 C
72 27-08-2019 05:55:00 17 C 95 % 16.19 C
73 27-08-2019 06:00:00 17 C 95 % 16.19 C
74 27-08-2019 06:05:00 16.9 C 95 % 16.09 C
75 27-08-2019 06:10:00 16.8 C 95 % 15.99 C
Sensor: Nr:Datum:Temp:Feuchte:Taupunkt:
Aussen-T/F 76 27-08-2019 06:15:00 16.8 C 95 % 15.99 C
77 27-08-2019 06:20:00 16.8 C 95 % 15.99 C
78 27-08-2019 06:25:00 16.9 C 96 % 16.26 C
79 27-08-2019 06:30:00 16.8 C 96 % 16.16 C
80 27-08-2019 06:35:00 16.7 C 95 % 15.9 C
81 27-08-2019 06:40:00 16.7 C 95 % 15.9 C
82 27-08-2019 06:45:00 16.7 C 95 % 15.9 C
83 27-08-2019 06:50:00 16.7 C 96 % 16.06 C
84 27-08-2019 06:55:00 16.7 C 96 % 16.06 C
85 27-08-2019 07:00:00 16.9 C 96 % 16.26 C
86 27-08-2019 07:05:00 16.9 C 96 % 16.26 C
87 27-08-2019 07:10:00 16.9 C 96 % 16.26 C
88 27-08-2019 07:15:00 16.9 C 96 % 16.26 C
89 27-08-2019 07:20:00 16.9 C 96 % 16.26 C
90 27-08-2019 07:25:00 16.9 C 96 % 16.26 C
91 27-08-2019 07:30:00 16.8 C 96 % 16.16 C
92 27-08-2019 07:35:00 16.8 C 96 % 16.16 C
93 27-08-2019 07:40:00 16.8 C 96 % 16.16 C
94 27-08-2019 07:45:00 16.8 C 96 % 16.16 C
95 27-08-2019 07:50:00 16.8 C 96 % 16.16 C
96 27-08-2019 07:55:00 16.8 C 96 % 16.16 C
97 27-08-2019 08:00:00 16.9 C 96 % 16.26 C
98 27-08-2019 08:05:00 17 C 96 % 16.36 C
99 27-08-2019 08:10:00 17.1 C 96 % 16.46 C
100 27-08-2019 08:15:00 17.2 C 96 % 16.56 C
Sensor: Nr:Datum:Temp:Feuchte:Taupunkt:
Aussen-T/F 101 27-08-2019 08:20:00 17.2 C 96 % 16.56 C
102 27-08-2019 08:25:00 17.2 C 96 % 16.56 C
103 27-08-2019 08:30:00 17.3 C 97 % 16.82 C
104 27-08-2019 08:35:00 17.4 C 97 % 16.92 C
105 27-08-2019 08:40:00 17.5 C 97 % 17.02 C
106 27-08-2019 08:45:00 17.6 C 97 % 17.12 C
107 27-08-2019 08:50:00 17.7 C 97 % 17.22 C
108 27-08-2019 08:55:00 17.8 C 97 % 17.32 C
109 27-08-2019 09:00:00 17.8 C 97 % 17.32 C
110 27-08-2019 09:05:00 17.9 C 97 % 17.42 C
111 27-08-2019 09:10:00 18.1 C 97 % 17.62 C
112 27-08-2019 09:15:00 18.2 C 97 % 17.72 C
113 27-08-2019 09:20:00 18.2 C 97 % 17.72 C
114 27-08-2019 09:25:00 18.3 C 97 % 17.82 C
115 27-08-2019 09:30:00 18.4 C 97 % 17.91 C
116 27-08-2019 09:35:00 18.6 C 97 % 18.11 C
117 27-08-2019 09:40:00 18.7 C 97 % 18.21 C
118 27-08-2019 09:45:00 18.8 C 97 % 18.31 C
119 27-08-2019 09:50:00 18.9 C 97 % 18.41 C
120 27-08-2019 09:55:00 18.9 C 97 % 18.41 C
121 27-08-2019 10:00:00 19.1 C 97 % 18.61 C
122 27-08-2019 10:05:00 19.2 C 97 % 18.71 C
123 27-08-2019 10:10:00 19.3 C 97 % 18.81 C
124 27-08-2019 10:15:00 19.4 C 96 % 18.75 C
125 27-08-2019 10:20:00 19.5 C 97 % 19.01 C
Sensor: Nr:Datum:Temp:Feuchte:Taupunkt:
Aussen-T/F 126 27-08-2019 10:25:00 19.7 C 96 % 19.04 C
127 27-08-2019 10:30:00 19.8 C 96 % 19.14 C
128 27-08-2019 10:35:00 19.9 C 96 % 19.24 C
129 27-08-2019 10:40:00 20.1 C 96 % 19.44 C
130 27-08-2019 10:45:00 20.3 C 95 % 19.47 C
131 27-08-2019 10:50:00 20.4 C 95 % 19.57 C
132 27-08-2019 10:55:00 20.7 C 95 % 19.87 C
133 27-08-2019 11:00:00 20.9 C 94 % 19.9 C
134 27-08-2019 11:05:00 21.2 C 94 % 20.19 C
135 27-08-2019 11:10:00 21.4 C 93 % 20.22 C
136 27-08-2019 11:15:00 21.7 C 92 % 20.34 C
137 27-08-2019 11:20:00 21.9 C 92 % 20.54 C
138 27-08-2019 11:25:00 22.2 C 91 % 20.66 C
139 27-08-2019 11:30:00 22.4 C 89 % 20.5 C
140 27-08-2019 11:35:00 22.7 C 88 % 20.61 C
141 27-08-2019 11:40:00 22.9 C 88 % 20.81 C
142 27-08-2019 11:45:00 23.1 C 88 % 21 C
143 27-08-2019 11:50:00 23.3 C 87 % 21.01 C
144 27-08-2019 11:55:00 23.6 C 87 % 21.31 C
145 27-08-2019 12:00:00 23.8 C 86 % 21.31 C
146 27-08-2019 12:05:00 24 C 84 % 21.13 C
147 27-08-2019 12:10:00 24.2 C 83 % 21.13 C
148 27-08-2019 12:15:00 24.6 C 81 % 21.12 C
149 27-08-2019 12:20:00 24.9 C 79 % 21 C
150 27-08-2019 12:25:00 25.2 C 80 % 21.5 C
Sensor: Nr:Datum:Temp:Feuchte:Taupunkt:
Aussen-T/F 151 27-08-2019 12:30:00 25.4 C 73 % 20.21 C
152 27-08-2019 12:35:00 25.8 C 76 % 21.24 C
153 27-08-2019 12:40:00 26.2 C 69 % 20.06 C
154 27-08-2019 12:45:00 26.7 C 68 % 20.3 C
155 27-08-2019 12:50:00 26.9 C 65 % 19.76 C
156 27-08-2019 12:55:00 27.3 C 71 % 21.58 C
157 27-08-2019 13:00:00 27.4 C 65 % 20.23 C
158 27-08-2019 13:05:00 27.8 C 62 % 19.85 C
159 27-08-2019 13:10:00 28.2 C 59 % 19.42 C
160 27-08-2019 13:15:00 28.6 C 57 % 19.24 C
161 27-08-2019 13:20:00 29 C 57 % 19.62 C
162 27-08-2019 13:25:00 29.3 C 58 % 20.18 C
163 27-08-2019 13:30:00 29.5 C 57 % 20.08 C
164 27-08-2019 13:35:00 29.6 C 57 % 20.17 C
165 27-08-2019 13:40:00 29.6 C 56 % 19.89 C
166 27-08-2019 13:45:00 29.6 C 54 % 19.3 C
167 27-08-2019 13:50:00 29.6 C 51 % 18.39 C
168 27-08-2019 13:55:00 29.7 C 51 % 18.48 C
169 27-08-2019 14:00:00 29.9 C 53 % 19.28 C
170 27-08-2019 14:05:00 30 C 51 % 18.75 C
171 27-08-2019 14:10:00 30.1 C 51 % 18.85 C
172 27-08-2019 14:15:00 30.2 C 49 % 18.3 C
173 27-08-2019 14:20:00 30.3 C 49 % 18.39 C
174 27-08-2019 14:25:00 30.4 C 50 % 18.8 C
175 27-08-2019 14:30:00 30.6 C 48 % 18.33 C
Sensor: Nr:Datum:Temp:Feuchte:Taupunkt:
Aussen-T/F 176 27-08-2019 14:35:00 30.8 C 49 % 18.85 C
177 27-08-2019 14:40:00 30.9 C 47 % 18.27 C
178 27-08-2019 14:45:00 31 C 48 % 18.7 C
179 27-08-2019 14:50:00 31.1 C 51 % 19.76 C
180 27-08-2019 14:55:00 31.2 C 45 % 17.85 C
181 27-08-2019 15:00:00 31.4 C 45 % 18.03 C
182 27-08-2019 15:05:00 31.4 C 43 % 17.31 C
183 27-08-2019 15:10:00 31.6 C 45 % 18.21 C
184 27-08-2019 15:15:00 31.6 C 45 % 18.21 C
185 27-08-2019 15:20:00 31.7 C 46 % 18.65 C
186 27-08-2019 15:25:00 31.8 C 42 % 17.3 C
187 27-08-2019 15:30:00 31.9 C 42 % 17.39 C
188 27-08-2019 15:35:00 32.1 C 42 % 17.57 C
189 27-08-2019 15:40:00 32.2 C 41 % 17.27 C
190 27-08-2019 15:45:00 32.2 C 42 % 17.65 C
191 27-08-2019 15:50:00 32.3 C 41 % 17.36 C
192 27-08-2019 15:55:00 32.5 C 43 % 18.3 C
193 27-08-2019 16:00:00 32.6 C 40 % 17.24 C
194 27-08-2019 16:05:00 32.6 C 42 % 18.01 C
195 27-08-2019 16:10:00 32.7 C 42 % 18.1 C
196 27-08-2019 16:15:00 32.8 C 41 % 17.81 C
197 27-08-2019 16:20:00 33 C 45 % 19.48 C
198 27-08-2019 16:25:00 33.2 C 41 % 18.17 C
199 27-08-2019 16:30:00 33.3 C 41 % 18.25 C
200 27-08-2019 16:35:00 33.3 C 40 % 17.86 C
Sensor: Nr:Datum:Temp:Feuchte:Taupunkt:
Aussen-T/F 201 27-08-2019 16:40:00 33.5 C 45 % 19.93 C
202 27-08-2019 16:45:00 33.7 C 43 % 19.37 C
203 27-08-2019 16:50:00 33.9 C 42 % 19.18 C
204 27-08-2019 16:55:00 34.2 C 38 % 17.84 C
205 27-08-2019 17:00:00 34.3 C 44 % 20.28 C
206 27-08-2019 17:05:00 34.3 C 38 % 17.93 C
207 27-08-2019 17:10:00 34.2 C 38 % 17.84 C
208 27-08-2019 17:15:00 33.9 C 40 % 18.4 C
209 27-08-2019 17:20:00 33.6 C 47 % 20.72 C
210 27-08-2019 17:25:00 33.1 C 47 % 20.27 C
211 27-08-2019 17:30:00 32.4 C 49 % 20.31 C
212 27-08-2019 17:35:00 31.6 C 51 % 20.22 C
213 27-08-2019 17:40:00 30.9 C 53 % 20.2 C
214 27-08-2019 17:45:00 30.3 C 54 % 19.95 C
215 27-08-2019 17:50:00 29.7 C 54 % 19.39 C
216 27-08-2019 17:55:00 29.2 C 55 % 19.23 C
217 27-08-2019 18:00:00 28.7 C 56 % 19.05 C
218 27-08-2019 18:05:00 28.4 C 57 % 19.06 C
219 27-08-2019 18:10:00 28.2 C 59 % 19.42 C
220 27-08-2019 18:15:00 28.3 C 61 % 20.06 C
221 27-08-2019 18:20:00 28.7 C 62 % 20.69 C
222 27-08-2019 18:25:00 29.2 C 61 % 20.9 C
223 27-08-2019 18:30:00 29.9 C 57 % 20.45 C
224 27-08-2019 18:35:00 30.5 C 50 % 18.9 C
225 27-08-2019 18:40:00 30.9 C 55 % 20.8 C
Sensor: Nr:Datum:Temp:Feuchte:Taupunkt:
Aussen-T/F 226 27-08-2019 18:45:00 30.9 C 55 % 20.8 C
227 27-08-2019 18:50:00 30.7 C 55 % 20.62 C
228 27-08-2019 18:55:00 30.3 C 57 % 20.83 C
229 27-08-2019 19:00:00 30 C 57 % 20.55 C
230 27-08-2019 19:05:00 29.6 C 57 % 20.17 C
231 27-08-2019 19:10:00 29.1 C 55 % 19.13 C
232 27-08-2019 19:15:00 28.9 C 53 % 18.36 C
233 27-08-2019 19:20:00 28.8 C 56 % 19.14 C
234 27-08-2019 19:25:00 28.4 C 59 % 19.61 C
235 27-08-2019 19:30:00 27.7 C 65 % 20.52 C
236 27-08-2019 19:35:00 27.1 C 69 % 20.92 C
237 27-08-2019 19:40:00 26.4 C 71 % 20.71 C
238 27-08-2019 19:45:00 25.9 C 72 % 20.46 C
239 27-08-2019 19:50:00 25.5 C 75 % 20.74 C
240 27-08-2019 19:55:00 25 C 77 % 20.68 C
241 27-08-2019 20:00:00 24.7 C 80 % 21.01 C
242 27-08-2019 20:05:00 24.6 C 81 % 21.12 C
243 27-08-2019 20:10:00 24.3 C 81 % 20.83 C
244 27-08-2019 20:15:00 24.1 C 80 % 20.43 C
245 27-08-2019 20:20:00 23.9 C 81 % 20.44 C
246 27-08-2019 20:25:00 23.6 C 81 % 20.15 C
247 27-08-2019 20:30:00 23.3 C 82 % 20.05 C
248 27-08-2019 20:35:00 23.1 C 82 % 19.86 C
249 27-08-2019 20:40:00 22.8 C 83 % 19.76 C
250 27-08-2019 20:45:00 22.7 C 83 % 19.66 C
Sensor: Nr:Datum:Temp:Feuchte:Taupunkt:
Aussen-T/F 251 27-08-2019 20:50:00 22.6 C 84 % 19.76 C
252 27-08-2019 20:55:00 22.4 C 84 % 19.56 C
253 27-08-2019 21:00:00 22.3 C 84 % 19.46 C
254 27-08-2019 21:05:00 22.2 C 83 % 19.17 C
255 27-08-2019 21:10:00 22.1 C 84 % 19.27 C
256 27-08-2019 21:15:00 22.2 C 86 % 19.75 C
257 27-08-2019 21:20:00 22.2 C 86 % 19.75 C
258 27-08-2019 21:25:00 22.3 C 86 % 19.84 C
259 27-08-2019 21:30:00 22.2 C 85 % 19.56 C
260 27-08-2019 21:35:00 22.2 C 84 % 19.37 C
261 27-08-2019 21:40:00 22 C 84 % 19.17 C
262 27-08-2019 21:45:00 21.9 C 85 % 19.26 C
263 27-08-2019 21:50:00 21.8 C 84 % 18.97 C
264 27-08-2019 21:55:00 21.7 C 84 % 18.88 C
265 27-08-2019 22:00:00 21.6 C 84 % 18.78 C
266 27-08-2019 22:05:00 21.4 C 85 % 18.77 C
267 27-08-2019 22:10:00 21.3 C 86 % 18.86 C
268 27-08-2019 22:15:00 21.4 C 88 % 19.33 C
269 27-08-2019 22:20:00 21.3 C 87 % 19.05 C
270 27-08-2019 22:25:00 21.2 C 86 % 18.76 C
271 27-08-2019 22:30:00 21.1 C 86 % 18.67 C
272 27-08-2019 22:35:00 20.9 C 86 % 18.47 C
273 27-08-2019 22:40:00 20.9 C 87 % 18.65 C
274 27-08-2019 22:45:00 20.9 C 87 % 18.65 C
275 27-08-2019 22:50:00 20.9 C 88 % 18.84 C
Sensor: Nr:Datum:Temp:Feuchte:Taupunkt:
Aussen-T/F 276 27-08-2019 22:55:00 20.8 C 87 % 18.56 C
277 27-08-2019 23:00:00 20.8 C 87 % 18.56 C
278 27-08-2019 23:05:00 20.7 C 88 % 18.64 C
279 27-08-2019 23:10:00 20.7 C 88 % 18.64 C
280 27-08-2019 23:15:00 20.6 C 88 % 18.54 C
281 27-08-2019 23:20:00 20.5 C 88 % 18.44 C
282 27-08-2019 23:25:00 20.5 C 89 % 18.62 C
283 27-08-2019 23:30:00 20.5 C 89 % 18.62 C
284 27-08-2019 23:35:00 20.4 C 88 % 18.34 C
285 27-08-2019 23:40:00 20.3 C 88 % 18.25 C
286 27-08-2019 23:45:00 20.2 C 88 % 18.15 C
287 27-08-2019 23:50:00 20.1 C 88 % 18.05 C
288 27-08-2019 23:55:00 19.9 C 89 % 18.03 C
289 28-08-2019 00:00:00 19.9 C 89 % 18.03 C
290 28-08-2019 00:05:00 20 C 90 % 18.31 C
291 28-08-2019 00:10:00 20.1 C 90 % 18.41 C
292 28-08-2019 00:15:00 20.1 C 90 % 18.41 C
293 28-08-2019 00:20:00 19.9 C 89 % 18.03 C
294 28-08-2019 00:25:00 19.9 C 90 % 18.21 C
295 28-08-2019 00:30:00 19.9 C 90 % 18.21 C
296 28-08-2019 00:35:00 19.8 C 90 % 18.11 C
297 28-08-2019 00:40:00 19.8 C 90 % 18.11 C
298 28-08-2019 00:45:00 19.8 C 91 % 18.29 C
299 28-08-2019 00:50:00 19.8 C 91 % 18.29 C
300 28-08-2019 00:55:00 19.8 C 91 % 18.29 C
Sensor: Nr:Datum:Temp:Feuchte:Taupunkt:
Aussen-T/F 301 28-08-2019 01:00:00 19.7 C 90 % 18.01 C
302 28-08-2019 01:05:00 19.6 C 91 % 18.09 C
303 28-08-2019 01:10:00 19.6 C 91 % 18.09 C
304 28-08-2019 01:15:00 19.5 C 91 % 17.99 C
305 28-08-2019 01:20:00 19.5 C 92 % 18.17 C
306 28-08-2019 01:25:00 19.6 C 92 % 18.26 C
307 28-08-2019 01:30:00 19.6 C 92 % 18.26 C
308 28-08-2019 01:35:00 19.6 C 92 % 18.26 C
309 28-08-2019 01:40:00 19.7 C 93 % 18.54 C
310 28-08-2019 01:45:00 19.7 C 93 % 18.54 C
311 28-08-2019 01:50:00 19.7 C 92 % 18.36 C
312 28-08-2019 01:55:00 19.6 C 92 % 18.26 C
313 28-08-2019 02:00:00 19.5 C 92 % 18.17 C
314 28-08-2019 02:05:00 19.4 C 92 % 18.07 C
315 28-08-2019 02:10:00 19.4 C 92 % 18.07 C
316 28-08-2019 02:15:00 19.3 C 92 % 17.97 C
317 28-08-2019 02:20:00 19.3 C 93 % 18.14 C
318 28-08-2019 02:25:00 19.3 C 93 % 18.14 C
319 28-08-2019 02:30:00 19.3 C 93 % 18.14 C
320 28-08-2019 02:35:00 19.2 C 93 % 18.04 C
321 28-08-2019 02:40:00 19.2 C 93 % 18.04 C
322 28-08-2019 02:45:00 19.1 C 93 % 17.94 C
323 28-08-2019 02:50:00 19 C 93 % 17.84 C
324 28-08-2019 02:55:00 18.9 C 93 % 17.74 C
325 28-08-2019 03:00:00 18.8 C 93 % 17.64 C
Sensor: Nr:Datum:Temp:Feuchte:Taupunkt:
Aussen-T/F 326 28-08-2019 03:05:00 18.8 C 93 % 17.64 C
327 28-08-2019 03:10:00 18.7 C 93 % 17.54 C
328 28-08-2019 03:15:00 18.7 C 93 % 17.54 C
329 28-08-2019 03:20:00 18.7 C 94 % 17.71 C
330 28-08-2019 03:25:00 18.7 C 94 % 17.71 C
331 28-08-2019 03:30:00 18.7 C 93 % 17.54 C
332 28-08-2019 03:35:00 18.6 C 93 % 17.45 C
333 28-08-2019 03:40:00 18.6 C 94 % 17.62 C
334 28-08-2019 03:45:00 18.8 C 94 % 17.81 C
335 28-08-2019 03:50:00 18.8 C 94 % 17.81 C
336 28-08-2019 03:55:00 18.7 C 94 % 17.71 C
337 28-08-2019 04:00:00 18.7 C 94 % 17.71 C
338 28-08-2019 04:05:00 18.6 C 94 % 17.62 C
339 28-08-2019 04:10:00 18.6 C 94 % 17.62 C
340 28-08-2019 04:15:00 18.5 C 94 % 17.52 C
341 28-08-2019 04:20:00 18.4 C 94 % 17.42 C
342 28-08-2019 04:25:00 18.3 C 93 % 17.15 C
343 28-08-2019 04:30:00 18.2 C 94 % 17.22 C
344 28-08-2019 04:35:00 18.2 C 94 % 17.22 C
345 28-08-2019 04:40:00 18.1 C 94 % 17.12 C
346 28-08-2019 04:45:00 18.1 C 94 % 17.12 C
347 28-08-2019 04:50:00 18.1 C 94 % 17.12 C
348 28-08-2019 04:55:00 18.2 C 94 % 17.22 C
349 28-08-2019 05:00:00 18.1 C 94 % 17.12 C
350 28-08-2019 05:05:00 18.1 C 94 % 17.12 C
Sensor: Nr:Datum:Temp:Feuchte:Taupunkt:
Aussen-T/F 351 28-08-2019 05:10:00 18.1 C 94 % 17.12 C
352 28-08-2019 05:15:00 18.1 C 94 % 17.12 C
353 28-08-2019 05:20:00 18 C 94 % 17.02 C
354 28-08-2019 05:25:00 17.9 C 94 % 16.92 C
355 28-08-2019 05:30:00 17.8 C 94 % 16.82 C
356 28-08-2019 05:35:00 17.9 C 95 % 17.09 C
357 28-08-2019 05:40:00 17.9 C 95 % 17.09 C
358 28-08-2019 05:45:00 17.9 C 95 % 17.09 C
359 28-08-2019 05:50:00 17.9 C 95 % 17.09 C
360 28-08-2019 05:55:00 17.9 C 95 % 17.09 C
361 28-08-2019 06:00:00 17.9 C 95 % 17.09 C
362 28-08-2019 06:05:00 17.9 C 95 % 17.09 C
363 28-08-2019 06:10:00 18 C 95 % 17.19 C
364 28-08-2019 06:15:00 18.2 C 96 % 17.55 C
365 28-08-2019 06:20:00 18.3 C 95 % 17.48 C
366 28-08-2019 06:25:00 18.2 C 95 % 17.39 C
367 28-08-2019 06:30:00 18.2 C 95 % 17.39 C
368 28-08-2019 06:35:00 18.1 C 95 % 17.29 C
369 28-08-2019 06:40:00 18 C 95 % 17.19 C
370 28-08-2019 06:45:00 17.8 C 95 % 16.99 C
371 28-08-2019 06:50:00 17.8 C 95 % 16.99 C
372 28-08-2019 06:55:00 17.8 C 95 % 16.99 C
373 28-08-2019 07:00:00 17.8 C 95 % 16.99 C
374 28-08-2019 07:05:00 17.8 C 95 % 16.99 C
375 28-08-2019 07:10:00 17.8 C 95 % 16.99 C
Sensor: Nr:Datum:Temp:Feuchte:Taupunkt:
Aussen-T/F 376 28-08-2019 07:15:00 17.9 C 95 % 17.09 C
377 28-08-2019 07:20:00 17.9 C 96 % 17.25 C
378 28-08-2019 07:25:00 17.9 C 95 % 17.09 C
379 28-08-2019 07:30:00 17.8 C 95 % 16.99 C
380 28-08-2019 07:35:00 17.8 C 95 % 16.99 C
381 28-08-2019 07:40:00 17.8 C 95 % 16.99 C
382 28-08-2019 07:45:00 17.8 C 95 % 16.99 C
383 28-08-2019 07:50:00 17.9 C 96 % 17.25 C
384 28-08-2019 07:55:00 18.1 C 96 % 17.45 C
385 28-08-2019 08:00:00 18.2 C 96 % 17.55 C
386 28-08-2019 08:05:00 18.3 C 96 % 17.65 C
387 28-08-2019 08:10:00 18.4 C 96 % 17.75 C
388 28-08-2019 08:15:00 18.5 C 96 % 17.85 C
389 28-08-2019 08:20:00 18.6 C 96 % 17.95 C
390 28-08-2019 08:25:00 18.7 C 96 % 18.05 C
391 28-08-2019 08:30:00 18.7 C 96 % 18.05 C
392 28-08-2019 08:35:00 18.8 C 96 % 18.15 C
393 28-08-2019 08:40:00 18.8 C 96 % 18.15 C
394 28-08-2019 08:45:00 18.8 C 95 % 17.98 C
395 28-08-2019 08:50:00 18.9 C 95 % 18.08 C
396 28-08-2019 08:55:00 19 C 95 % 18.18 C
397 28-08-2019 09:00:00 19.1 C 95 % 18.28 C
398 28-08-2019 09:05:00 19.1 C 95 % 18.28 C
399 28-08-2019 09:10:00 19.2 C 94 % 18.21 C
400 28-08-2019 09:15:00 19.3 C 94 % 18.31 C
Sensor: Nr:Datum:Temp:Feuchte:Taupunkt:
Aussen-T/F 401 28-08-2019 09:20:00 19.4 C 94 % 18.41 C
402 28-08-2019 09:25:00 19.6 C 94 % 18.61 C
403 28-08-2019 09:30:00 19.7 C 94 % 18.71 C
404 28-08-2019 09:35:00 19.9 C 93 % 18.73 C
405 28-08-2019 09:40:00 20.1 C 94 % 19.1 C
406 28-08-2019 09:45:00 20.3 C 92 % 18.96 C
407 28-08-2019 09:50:00 20.6 C 91 % 19.08 C
408 28-08-2019 09:55:00 20.8 C 89 % 18.92 C
409 28-08-2019 10:00:00 21.1 C 88 % 19.03 C
410 28-08-2019 10:05:00 21.3 C 85 % 18.67 C
411 28-08-2019 10:10:00 21.7 C 82 % 18.49 C
412 28-08-2019 10:15:00 22.2 C 80 % 18.58 C
413 28-08-2019 10:20:00 22.5 C 78 % 18.47 C
414 28-08-2019 10:25:00 22.7 C 77 % 18.46 C
415 28-08-2019 10:30:00 22.8 C 75 % 18.14 C
416 28-08-2019 10:35:00 22.9 C 75 % 18.23 C
417 28-08-2019 10:40:00 22.9 C 74 % 18.02 C
418 28-08-2019 10:45:00 23 C 73 % 17.9 C
419 28-08-2019 10:50:00 23.1 C 73 % 17.99 C
420 28-08-2019 10:55:00 23.2 C 73 % 18.09 C
421 28-08-2019 11:00:00 23.4 C 73 % 18.28 C
422 28-08-2019 11:05:00 23.6 C 73 % 18.48 C
423 28-08-2019 11:10:00 23.7 C 72 % 18.35 C
424 28-08-2019 11:15:00 23.8 C 71 % 18.22 C
425 28-08-2019 11:20:00 23.9 C 72 % 18.54 C
Sensor: Nr:Datum:Temp:Feuchte:Taupunkt:
Aussen-T/F 426 28-08-2019 11:25:00 24.1 C 72 % 18.73 C
427 28-08-2019 11:30:00 24.2 C 71 % 18.61 C
428 28-08-2019 11:35:00 24.2 C 71 % 18.61 C
429 28-08-2019 11:40:00 24.2 C 70 % 18.38 C
430 28-08-2019 11:45:00 24.2 C 71 % 18.61 C
431 28-08-2019 11:50:00 24.2 C 71 % 18.61 C
432 28-08-2019 11:55:00 24.2 C 73 % 19.05 C
433 28-08-2019 12:00:00 24.2 C 75 % 19.49 C
434 28-08-2019 12:05:00 24.2 C 76 % 19.7 C
435 28-08-2019 12:10:00 24.2 C 77 % 19.91 C
436 28-08-2019 12:15:00 24.1 C 76 % 19.6 C
437 28-08-2019 12:20:00 24.1 C 73 % 18.96 C
438 28-08-2019 12:25:00 24.1 C 72 % 18.73 C
439 28-08-2019 12:30:00 24.3 C 69 % 18.25 C
440 28-08-2019 12:35:00 24.6 C 69 % 18.53 C
441 28-08-2019 12:40:00 24.8 C 68 % 18.49 C
442 28-08-2019 12:45:00 24.9 C 66 % 18.11 C
443 28-08-2019 12:50:00 25.1 C 65 % 18.06 C
444 28-08-2019 12:55:00 25.3 C 64 % 18 C
445 28-08-2019 13:00:00 25.4 C 64 % 18.09 C
446 28-08-2019 13:05:00 25.5 C 63 % 17.94 C
447 28-08-2019 13:10:00 25.6 C 63 % 18.03 C
448 28-08-2019 13:15:00 25.7 C 63 % 18.13 C
449 28-08-2019 13:20:00 25.8 C 61 % 17.71 C
450 28-08-2019 13:25:00 26 C 61 % 17.9 C
Sensor: Nr:Datum:Temp:Feuchte:Taupunkt:
Aussen-T/F 451 28-08-2019 13:30:00 26.3 C 58 % 17.38 C
452 28-08-2019 13:35:00 26.8 C 56 % 17.29 C
453 28-08-2019 13:40:00 27.3 C 56 % 17.75 C
454 28-08-2019 13:45:00 27.8 C 55 % 17.93 C
455 28-08-2019 13:50:00 28.1 C 54 % 17.92 C
456 28-08-2019 13:55:00 28.2 C 52 % 17.41 C
457 28-08-2019 14:00:00 28.4 C 52 % 17.59 C
458 28-08-2019 14:05:00 28.7 C 52 % 17.87 C
459 28-08-2019 14:10:00 28.8 C 53 % 18.26 C
460 28-08-2019 14:15:00 29 C 52 % 18.15 C
461 28-08-2019 14:20:00 29.3 C 50 % 17.8 C
462 28-08-2019 14:25:00 29.4 C 52 % 18.51 C
463 28-08-2019 14:30:00 29.6 C 49 % 17.75 C
464 28-08-2019 14:35:00 29.6 C 51 % 18.39 C
465 28-08-2019 14:40:00 29.8 C 50 % 18.25 C
466 28-08-2019 14:45:00 30.1 C 49 % 18.21 C
467 28-08-2019 14:50:00 30.3 C 47 % 17.73 C
468 28-08-2019 14:55:00 30.3 C 47 % 17.73 C
469 28-08-2019 15:00:00 30.2 C 47 % 17.64 C
470 28-08-2019 15:05:00 30.2 C 50 % 18.62 C
471 28-08-2019 15:10:00 30.2 C 44 % 16.59 C
472 28-08-2019 15:15:00 30.1 C 44 % 16.5 C
473 28-08-2019 15:20:00 30 C 44 % 16.41 C
474 28-08-2019 15:25:00 30.1 C 43 % 16.14 C
475 28-08-2019 15:30:00 30.3 C 43 % 16.32 C
Sensor: Nr:Datum:Temp:Feuchte:Taupunkt:
Aussen-T/F 476 28-08-2019 15:35:00 30.4 C 42 % 16.04 C
477 28-08-2019 15:40:00 30.6 C 44 % 16.95 C
478 28-08-2019 15:45:00 30.7 C 44 % 17.04 C
479 28-08-2019 15:50:00 30.7 C 43 % 16.68 C
480 28-08-2019 15:55:00 30.8 C 43 % 16.77 C
481 28-08-2019 16:00:00 30.9 C 43 % 16.86 C
482 28-08-2019 16:05:00 31.1 C 42 % 16.67 C
483 28-08-2019 16:10:00 31.3 C 41 % 16.47 C
484 28-08-2019 16:15:00 31.5 C 39 % 15.86 C
485 28-08-2019 16:20:00 31.6 C 40 % 16.35 C
486 28-08-2019 16:25:00 31.7 C 41 % 16.83 C
487 28-08-2019 16:30:00 31.8 C 40 % 16.53 C
488 28-08-2019 16:35:00 31.8 C 41 % 16.92 C
489 28-08-2019 16:40:00 31.8 C 43 % 17.67 C
490 28-08-2019 16:45:00 31.8 C 41 % 16.92 C
491 28-08-2019 16:50:00 31.8 C 42 % 17.3 C
492 28-08-2019 16:55:00 31.6 C 43 % 17.49 C
493 28-08-2019 17:00:00 31.4 C 42 % 16.94 C
494 28-08-2019 17:05:00 31.3 C 44 % 17.58 C
495 28-08-2019 17:10:00 31.4 C 43 % 17.31 C
496 28-08-2019 17:15:00 31.6 C 46 % 18.56 C
497 28-08-2019 17:20:00 31.8 C 42 % 17.3 C
498 28-08-2019 17:25:00 31.9 C 43 % 17.76 C
499 28-08-2019 17:30:00 31.8 C 42 % 17.3 C
500 28-08-2019 17:35:00 31.9 C 40 % 16.62 C
Sensor: Nr:Datum:Temp:Feuchte:Taupunkt:
Aussen-T/F 501 28-08-2019 17:40:00 32 C 42 % 17.48 C
502 28-08-2019 17:45:00 32.1 C 41 % 17.18 C
503 28-08-2019 17:50:00 32.2 C 40 % 16.88 C
504 28-08-2019 17:55:00 32.3 C 39 % 16.57 C
505 28-08-2019 18:00:00 32.3 C 40 % 16.97 C
506 28-08-2019 18:05:00 32.2 C 40 % 16.88 C
507 28-08-2019 18:10:00 32 C 44 % 18.21 C
508 28-08-2019 18:15:00 31.9 C 47 % 19.18 C
509 28-08-2019 18:20:00 31.9 C 41 % 17.01 C
510 28-08-2019 18:25:00 31.4 C 42 % 16.94 C
511 28-08-2019 18:30:00 31.1 C 47 % 18.45 C
512 28-08-2019 18:35:00 30.8 C 47 % 18.18 C
513 28-08-2019 18:40:00 30.4 C 51 % 19.12 C
514 28-08-2019 18:45:00 30.2 C 50 % 18.62 C
515 28-08-2019 18:50:00 30.1 C 51 % 18.85 C
516 28-08-2019 18:55:00 29.9 C 49 % 18.02 C
517 28-08-2019 19:00:00 29.7 C 48 % 17.51 C
518 28-08-2019 19:05:00 29.3 C 51 % 18.11 C
519 28-08-2019 19:10:00 28.9 C 52 % 18.05 C
520 28-08-2019 19:15:00 28.6 C 51 % 17.47 C
521 28-08-2019 19:20:00 28.2 C 52 % 17.41 C
522 28-08-2019 19:25:00 27.8 C 52 % 17.04 C
523 28-08-2019 19:30:00 27.6 C 51 % 16.55 C
524 28-08-2019 19:35:00 27.3 C 55 % 17.47 C
525 28-08-2019 19:40:00 27.1 C 52 % 16.4 C
Sensor: Nr:Datum:Temp:Feuchte:Taupunkt:
Aussen-T/F 526 28-08-2019 19:45:00 26.9 C 54 % 16.81 C
527 28-08-2019 19:50:00 26.7 C 54 % 16.62 C
528 28-08-2019 19:55:00 26.4 C 54 % 16.34 C
529 28-08-2019 20:00:00 26.3 C 55 % 16.54 C
530 28-08-2019 20:05:00 26.2 C 55 % 16.45 C
531 28-08-2019 20:10:00 26 C 56 % 16.54 C
532 28-08-2019 20:15:00 25.9 C 55 % 16.17 C
533 28-08-2019 20:20:00 25.8 C 55 % 16.07 C
534 28-08-2019 20:25:00 25.7 C 56 % 16.26 C
535 28-08-2019 20:30:00 25.5 C 57 % 16.36 C
536 28-08-2019 20:35:00 25.4 C 56 % 15.99 C
537 28-08-2019 20:40:00 25.3 C 58 % 16.44 C
538 28-08-2019 20:45:00 25.1 C 58 % 16.26 C
539 28-08-2019 20:50:00 25 C 59 % 16.43 C
540 28-08-2019 20:55:00 24.9 C 59 % 16.34 C
541 28-08-2019 21:00:00 24.8 C 58 % 15.98 C
542 28-08-2019 21:05:00 24.7 C 60 % 16.41 C
543 28-08-2019 21:10:00 24.6 C 61 % 16.58 C
544 28-08-2019 21:15:00 24.5 C 62 % 16.74 C
545 28-08-2019 21:20:00 24.3 C 61 % 16.3 C
546 28-08-2019 21:25:00 24.3 C 62 % 16.55 C
547 28-08-2019 21:30:00 24.2 C 61 % 16.2 C
548 28-08-2019 21:35:00 24.1 C 63 % 16.62 C
549 28-08-2019 21:40:00 24 C 65 % 17.01 C
550 28-08-2019 21:45:00 23.8 C 65 % 16.83 C
Sensor: Nr:Datum:Temp:Feuchte:Taupunkt:
Aussen-T/F 551 28-08-2019 21:50:00 23.7 C 65 % 16.73 C
552 28-08-2019 21:55:00 23.4 C 67 % 16.92 C
553 28-08-2019 22:00:00 23.2 C 66 % 16.5 C
554 28-08-2019 22:05:00 22.9 C 67 % 16.45 C
555 28-08-2019 22:10:00 22.7 C 66 % 16.02 C
556 28-08-2019 22:15:00 22.6 C 68 % 16.39 C
557 28-08-2019 22:20:00 22.6 C 70 % 16.85 C
558 28-08-2019 22:25:00 22.4 C 71 % 16.88 C
559 28-08-2019 22:30:00 22.3 C 71 % 16.79 C
560 28-08-2019 22:35:00 22.3 C 71 % 16.79 C
561 28-08-2019 22:40:00 22.2 C 72 % 16.91 C
562 28-08-2019 22:45:00 22.1 C 73 % 17.03 C
563 28-08-2019 22:50:00 22 C 73 % 16.94 C
564 28-08-2019 22:55:00 21.9 C 73 % 16.84 C
565 28-08-2019 23:00:00 21.8 C 72 % 16.53 C
566 28-08-2019 23:05:00 21.7 C 73 % 16.65 C
567 28-08-2019 23:10:00 21.6 C 73 % 16.55 C
568 28-08-2019 23:15:00 21.6 C 74 % 16.77 C
569 28-08-2019 23:20:00 21.4 C 74 % 16.57 C
570 28-08-2019 23:25:00 21.3 C 74 % 16.48 C
571 28-08-2019 23:30:00 21.3 C 75 % 16.69 C
572 28-08-2019 23:35:00 21.2 C 75 % 16.59 C
573 28-08-2019 23:40:00 21.2 C 75 % 16.59 C
574 28-08-2019 23:45:00 21.2 C 76 % 16.8 C
575 28-08-2019 23:50:00 21.2 C 76 % 16.8 C
Sensor: Nr:Datum:Temp:Feuchte:Taupunkt:
Aussen-T/F 576 28-08-2019 23:55:00 21.1 C 75 % 16.5 C

Legende:
   Min
   Max


Maximal/Minimal-Werte vom 27.08.2019 - 28.08.2019

Sensor Min Max Avg
Temp
(Aussen-T/F)
16.7 °C
27-08-2019  06:35:00
34.3 °C
27-08-2019  17:00:00
23.1 °C
Feuchte
(Aussen-T/F)
38 %
27-08-2019  16:55:00
97 %
27-08-2019  08:30:00
76.25 %
Taupunkt
(Aussen-T/F)
15.86 C
28-08-2019  16:15:00
21.58 C
27-08-2019  12:55:00
17.93 C

Die Daten stammen von einer Davis Vantage Pro 2 Wetter-Station und werden unter Linux mit der Software wview2wettercgi und aufbereitet. Alle Angaben erfolgen ohne Gewähr für ihre Vollständigkeit oder Richtigkeit.
Kontakt: Rainer Krienke krienke@uni-koblenz.de . Meine Webseiten an der Uni Koblenz oder privat.
Version: $Revision: 0.78 $